Terminal Aerodrome Forecast
Issued by NWS Birmingham, AL

Home | Current Version | Previous Version | Text Only | Print | Product List | Glossary On
Versions: 1 2 3 4 5 6 7 8 9 10 11 12 13 14 15 16 17 18 19 20 21 22
000
FTUS44 KBMX 301622 AAB
TAFBHM
TAF AMD
KBHM 301622Z 3016/3112 08006KT P6SM VCSH BKN015
     FM301800 06006KT P6SM -SHRA BKN025
     FM302300 VRB03KT P6SM BKN050=

USA.gov is the U.S. government's official web portal to all federal, state and local government web resources and services.